Terminal Aerodrome Forecast
Issued by NWS Wilmington, OH

Home | Current Version | Previous Version | Text Only | Print | Product List | Glossary On
Versions: 1 2 3 4 5 6 7 8 9 10 11 12 13 14 15 16 17 18 19 20 21
000
FTUS41 KILN 041730
TAFILN
TAF
KILN 041730Z 0418/0518 24006KT P6SM VCTS BKN040CB
     FM050100 VRB03KT P6SM SCT060
     FM050800 VRB03KT 4SM BR SKC
     FM051300 17005KT P6SM SCT040=

USA.gov is the U.S. government's official web portal to all federal, state and local government web resources and services.